Latest Weather Observations for Borroloola

IDD60801

Issued at 3:01 pm CST Wednesday 27 May 2015 (issued every 30 minutes, with the page automatically refreshed every 10 minutes)

About weather observations | Map of weather stations | Latest weather observations for NT | Other Formats
Station Details ID: 014723 Name: BORROLOOLA AIRPORT Lat: -16.08 Lon: 136.30 Height: 16.1 m
Data from the previous 72 hours. | See also: Recent months at Borroloola
Date/Time
CST
Temp
°C
App
Temp
°C
Dew
Point
Rel
Hum
%
Delta-T
°C
Wind Press
QNH
hPa
Press
MSL
hPa
Rain
since 9 am
mm
Dir
 
Spd
km/h
Gust
km/h
Spd
kts
Gust
kts
27/03:00pm 32.3 30.1 14.9 35 10.7 NNE 20 30 11 16 1012.4 1012.3 0.0
27/02:30pm 33.1 30.7 13.7 31 11.8 NE 19 28 10 15 1012.6 1012.5 0.0
27/02:00pm 33.7 31.4 9.0 22 14.0 NE 11 17 6 9 1012.9 1012.8 0.0
27/01:30pm 34.2 31.6 9.4 22 14.2 ENE 13 22 7 12 1013.3 1013.2 0.0
27/01:00pm 33.8 31.1 10.4 24 13.5 E 15 22 8 12 1013.8 1013.7 0.0
27/12:30pm 32.6 29.4 10.0 25 12.9 ESE 17 28 9 15 1014.6 1014.5 0.0
27/12:00pm 32.5 29.5 10.5 26 12.7 E 17 24 9 13 1015.0 1014.9 0.0
27/11:30am 32.0 28.6 10.7 27 12.3 E 19 30 10 16 1015.5 1015.4 0.0
27/11:00am 31.4 28.2 11.2 29 11.7 E 19 28 10 15 1016.1 1016.0 0.0
27/10:30am 30.2 27.2 12.1 32 10.6 ESE 19 28 10 15 1016.5 1016.4 0.0
27/10:00am 29.2 25.7 13.4 38 9.4 ESE 24 32 13 17 1016.8 1016.7 0.0
27/09:30am 28.2 27.9 16.5 49 7.3 ESE 13 22 7 12 1016.7 1016.6 0.0
27/09:00am 25.2 25.6 18.2 65 4.4 ESE 13 19 7 10 1016.4 1016.3 0.0
27/08:30am 22.6 24.7 19.4 82 2.0 SSE 7 11 4 6 1016.4 1016.3 0.0
27/08:00am 19.9 23.2 19.2 96 0.4 CALM 0 0 0 0 1016.2 1016.1 0.0
27/07:30am 17.9 20.4 17.3 96 0.4 CALM 0 0 0 0 1016.1 1016.0 0.0
27/07:00am 17.2 19.4 16.4 95 0.5 CALM 0 0 0 0 1015.9 1015.8 0.0
27/06:30am 17.2 19.3 16.2 94 0.6 CALM 0 0 0 0 1015.6 1015.5 0.0
27/06:00am 17.5 19.7 16.5 94 0.6 CALM 0 0 0 0 1015.5 1015.4 0.0
27/05:30am 17.7 20.0 16.7 94 0.6 CALM 0 0 0 0 1015.3 1015.2 0.0
27/05:00am 17.6 19.8 16.5 93 0.7 CALM 0 0 0 0 1015.2 1015.1 0.0
27/04:30am 17.9 20.3 16.9 94 0.6 CALM 0 0 0 0 1015.2 1015.1 0.0
27/04:00am 18.4 21.0 17.4 94 0.6 CALM 0 0 0 0 1015.2 1015.1 0.0
27/03:30am 18.7 21.5 17.9 95 0.5 CALM 0 0 0 0 1015.3 1015.2 0.0
27/03:00am 19.1 22.0 18.1 94 0.6 CALM 0 0 0 0 1015.6 1015.5 0.0
27/02:30am 19.1 21.7 17.6 91 0.9 CALM 0 0 0 0 1015.6 1015.5 0.0
27/02:00am 20.1 22.7 17.5 85 1.6 CALM 0 0 0 0 1016.1 1016.0 0.0
27/01:30am 20.8 23.0 19.1 90 1.1 SSW 6 7 3 4 1016.3 1016.2 0.0
27/01:00am 20.7 22.4 18.5 87 1.4 SSW 7 9 4 5 1016.6 1016.5 0.0
27/12:30am 20.7 22.1 17.9 84 1.7 NE 7 9 4 5 1016.7 1016.6 0.0
27/12:00am 21.4 24.3 18.2 82 2.0 CALM 0 0 0 0 1016.7 1016.6 0.0
 
Date/Time
CST
Temp
°C
App
Temp
°C
Dew
Point
Rel
Hum
%
Delta-T
°C
Wind Press
QNH
hPa
Press
MSL
hPa
Rain
since 9 am
mm
Dir
 
Spd
km/h
Gust
km/h
Spd
kts
Gust
kts
26/11:30pm 22.2 25.9 19.9 87 1.5 CALM 0 0 0 0 1016.9 1016.8 0.0
26/11:00pm 23.0 27.4 21.3 90 1.1 CALM 0 0 0 0 1017.0 1016.9 0.0
26/10:30pm 23.2 26.7 21.1 88 1.4 NE 4 7 2 4 1017.1 1017.0 0.0
26/10:00pm 23.1 26.8 19.9 82 2.1 CALM 0 0 0 0 1017.1 1017.0 0.0
26/09:30pm 24.1 28.1 20.6 81 2.3 CALM 0 0 0 0 1017.0 1016.9 0.0
26/09:00pm 24.5 27.4 21.0 81 2.3 NE 7 11 4 6 1016.9 1016.8 0.0
26/08:30pm 25.0 27.9 21.1 79 2.6 NE 7 9 4 5 1016.5 1016.4 0.0
26/08:00pm 25.3 27.3 20.8 76 3.0 NE 11 17 6 9 1016.2 1016.1 0.0
26/07:30pm 25.9 27.5 20.7 73 3.4 NE 13 20 7 11 1016.0 1015.9 0.0
26/07:00pm 26.4 27.0 20.3 69 4.0 NE 17 22 9 12 1015.6 1015.5 0.0
26/06:30pm 27.0 27.3 19.6 64 4.8 NE 17 20 9 11 1015.2 1015.1 0.0
26/06:00pm 27.8 27.9 19.1 59 5.6 NE 17 24 9 13 1015.0 1014.9 0.0
26/05:30pm 28.6 27.9 18.7 55 6.4 NE 20 30 11 16 1014.7 1014.6 0.0
26/05:00pm 29.5 28.8 18.3 51 7.2 NE 19 28 10 15 1014.4 1014.3 0.0
26/04:30pm 30.3 29.4 18.1 48 7.8 NE 20 30 11 16 1014.2 1014.1 0.0
26/04:00pm 30.5 29.1 17.9 47 8.1 NE 22 33 12 18 1014.1 1014.0 0.0
26/03:30pm 31.2 29.4 17.9 45 8.5 ENE 24 33 13 18 1014.2 1014.1 0.0
26/03:00pm 31.1 28.2 17.0 42 8.9 NE 28 37 15 20 1014.2 1014.1 0.0
26/02:30pm 31.7 28.5 16.4 39 9.6 NNE 28 39 15 21 1014.2 1014.1 0.0
26/02:00pm 33.0 31.1 16.8 38 10.3 NE 22 30 12 16 1014.5 1014.4 0.0
26/01:30pm 33.4 31.9 16.3 36 10.8 NNE 19 30 10 16 1014.7 1014.6 0.0
26/01:00pm 34.4 32.8 13.8 29 12.6 ESE 15 24 8 13 1015.3 1015.2 0.0
26/12:30pm 33.6 31.3 13.1 29 12.3 ESE 17 24 9 13 1016.0 1015.9 0.0
26/12:00pm 32.7 30.4 12.9 30 11.8 E 17 24 9 13 1016.6 1016.5 0.0
26/11:30am 33.2 31.0 13.3 30 12.0 E 17 24 9 13 1017.1 1017.0 0.0
26/11:00am 31.6 28.9 12.9 32 11.1 E 19 28 10 15 1017.6 1017.5 0.0
26/10:30am 31.1 27.3 12.5 32 11.0 E 24 37 13 20 1017.9 1017.8 0.0
26/10:00am 30.3 26.7 13.1 34 10.2 E 24 32 13 17 1018.1 1018.0 0.0
26/09:30am 28.7 25.7 13.8 40 8.9 ESE 22 32 12 17 1018.3 1018.2 0.0
26/09:00am 26.8 26.0 16.1 52 6.6 SE 15 20 8 11 1018.3 1018.2 0.0
26/08:30am 24.0 25.1 18.0 69 3.8 S 9 13 5 7 1018.3 1018.2 0.0
26/08:00am 21.7 23.5 18.3 81 2.1 SSW 6 9 3 5 1018.5 1018.4 0.0
26/07:30am 19.7 21.8 16.2 80 2.1 CALM 0 0 0 0 1018.3 1018.2 0.0
26/07:00am 17.3 18.6 14.2 82 1.8 CALM 0 0 0 0 1017.9 1017.8 0.0
26/06:30am 17.3 18.2 12.8 75 2.5 CALM 0 0 0 0 1017.5 1017.4 0.0
26/06:00am 17.9 19.6 15.3 85 1.5 CALM 0 0 0 0 1017.3 1017.2 0.0
26/05:30am 18.0 19.8 15.6 86 1.4 CALM 0 0 0 0 1017.1 1017.0 0.0
26/05:00am 18.2 20.2 16.0 87 1.3 CALM 0 0 0 0 1016.9 1016.8 0.0
26/04:30am 17.8 19.1 14.1 79 2.1 CALM 0 0 0 0 1017.0 1016.9 0.0
26/04:00am 18.3 20.5 16.5 89 1.1 CALM 0 0 0 0 1017.0 1016.9 0.0
26/03:30am 18.1 19.9 15.4 84 1.6 CALM 0 0 0 0 1017.0 1016.9 0.0
26/03:00am 18.2 19.9 15.3 83 1.7 CALM 0 0 0 0 1017.3 1017.2 0.0
26/02:30am 18.4 19.5 13.5 73 2.8 CALM 0 0 0 0 1017.5 1017.4 0.0
26/02:00am 18.8 20.2 14.5 76 2.5 CALM 0 0 0 0 1017.8 1017.7 0.0
26/01:30am 19.0 20.5 14.7 76 2.5 CALM 0 0 0 0 1018.0 1017.9 0.0
26/01:00am 19.1 20.3 13.9 72 3.0 CALM 0 0 0 0 1018.2 1018.1 0.0
26/12:30am 19.5 20.8 14.1 71 3.1 CALM 0 0 0 0 1018.4 1018.3 0.0
26/12:00am 20.0 21.6 14.8 72 3.0 CALM 0 0 0 0 1018.6 1018.5 0.0
 
Date/Time
CST
Temp
°C
App
Temp
°C
Dew
Point
Rel
Hum
%
Delta-T
°C
Wind Press
QNH
hPa
Press
MSL
hPa
Rain
since 9 am
mm
Dir
 
Spd
km/h
Gust
km/h
Spd
kts
Gust
kts
25/11:30pm 20.4 22.8 17.0 81 2.1 CALM 0 0 0 0 1018.7 1018.6 0.0
25/11:00pm 20.9 23.0 16.3 75 2.8 CALM 0 0 0 0 1018.7 1018.6 0.0
25/10:30pm 21.5 23.6 16.2 72 3.2 CALM 0 0 0 0 1018.8 1018.7 0.0
25/10:00pm 22.1 25.0 18.1 78 2.5 CALM 0 0 0 0 1018.8 1018.7 0.0
25/09:30pm 22.8 25.9 18.6 77 2.6 CALM 0 0 0 0 1018.7 1018.6 0.0
25/09:00pm 23.6 26.0 18.7 74 3.1 NE 4 7 2 4 1018.6 1018.5 0.0
25/08:30pm 24.2 26.4 19.1 73 3.2 NE 6 11 3 6 1018.4 1018.3 0.0
25/08:00pm 24.7 26.0 18.4 68 4.0 NE 9 13 5 7 1018.0 1017.9 0.0
25/07:30pm 25.2 26.2 17.7 63 4.7 NE 9 13 5 7 1017.6 1017.5 0.0
25/07:00pm 26.1 25.9 16.6 55 5.9 NE 13 17 7 9 1017.1 1017.0 0.0
25/06:30pm 26.6 26.4 14.7 48 7.1 NNE 9 15 5 8 1016.7 1016.6 0.0
25/06:00pm 27.9 25.5 12.7 39 8.9 NE 17 26 9 14 1016.2 1016.1 0.0
25/05:30pm 29.2 26.0 11.3 33 10.3 NE 19 28 10 15 1015.7 1015.6 0.0
25/05:00pm 30.5 26.4 8.8 26 12.1 NE 20 30 11 16 1015.3 1015.2 0.0
25/04:30pm 31.7 27.8 9.3 25 12.6 NE 20 32 11 17 1015.0 1014.9 0.0
25/04:00pm 32.3 27.8 8.5 23 13.3 NE 22 30 12 16 1014.6 1014.5 0.0
25/03:30pm 33.4 29.2 7.4 20 14.3 NE 19 24 10 13 1014.7 1014.6 0.0
25/03:00pm 34.1 31.0 7.2 19 14.8 ENE 13 20 7 11 1014.9 1014.8 0.0
25/02:30pm 33.2 29.9 6.5 19 14.5 SSE 13 22 7 12 1015.1 1015.0 0.0
25/02:00pm 32.9 29.9 6.2 19 14.4 ESE 11 22 6 12 1015.5 1015.4 0.0
25/01:30pm 32.6 28.5 6.0 19 14.3 E 17 26 9 14 1015.7 1015.6 0.0
25/01:00pm 32.5 28.4 8.0 22 13.6 E 19 30 10 16 1016.1 1016.0 0.0
25/12:30pm 31.6 27.4 7.3 22 13.2 E 19 30 10 16 1016.7 1016.6 0.0
25/12:00pm 31.3 28.1 8.3 24 12.7 E 15 26 8 14 1017.2 1017.1 0.0
25/11:30am 30.7 26.4 7.8 24 12.5 ESE 20 26 11 14 1017.6 1017.5 0.0
25/11:00am 30.3 26.3 8.1 25 12.2 ESE 19 30 10 16 1018.1 1018.0 0.0
25/10:30am 29.6 26.1 8.6 27 11.6 ESE 17 24 9 13 1018.4 1018.3 0.0
25/10:00am 28.2 24.4 9.0 30 10.6 ESE 19 26 10 14 1018.8 1018.7 0.0
25/09:30am 25.8 23.7 13.6 47 7.2 SE 17 20 9 11 1018.9 1018.8 0.0
25/09:00am 23.7 23.1 14.7 57 5.3 SSE 11 17 6 9 1018.8 1018.7 0.0
25/08:30am 21.5 21.0 13.7 61 4.5 SSE 9 13 5 7 1018.5 1018.4 0.0
25/08:00am 18.6 17.8 10.9 61 4.2 S 6 7 3 4 1018.1 1018.0 0.0
25/07:30am 16.1 16.0 9.3 64 3.5 CALM 0 0 0 0 1018.0 1017.9 0.0
25/07:00am 14.3 13.6 7.1 62 3.5 CALM 0 0 0 0 1017.6 1017.5 0.0
25/06:30am 14.0 13.3 6.8 62 3.5 CALM 0 0 0 0 1017.5 1017.4 0.0
25/06:00am 14.0 13.4 7.3 64 3.3 CALM 0 0 0 0 1017.4 1017.3 0.0
25/05:30am 14.4 13.8 7.5 63 3.4 CALM 0 0 0 0 1017.2 1017.1 0.0
25/05:00am 14.6 14.0 7.4 62 3.5 CALM 0 0 0 0 1017.1 1017.0 0.0
25/04:30am 14.6 14.0 7.6 63 3.5 CALM 0 0 0 0 1017.0 1016.9 0.0
25/04:00am 14.5 13.9 7.5 63 3.5 CALM 0 0 0 0 1017.0 1016.9 0.0
25/03:30am 14.8 14.1 7.1 60 3.8 CALM 0 0 0 0 1017.0 1016.9 0.0
25/03:00am 14.8 14.2 7.6 62 3.6 CALM 0 0 0 0 1017.3 1017.2 0.0
25/02:30am 14.9 14.3 7.2 60 3.8 CALM 0 0 0 0 1017.5 1017.4 0.0
25/02:00am 15.4 14.8 7.4 59 4.0 CALM 0 0 0 0 1017.7 1017.6 0.0
25/01:30am 15.8 15.0 6.5 54 4.5 CALM 0 0 0 0 1018.0 1017.9 0.0
25/01:00am 16.1 15.1 5.7 50 5.0 CALM 0 0 0 0 1017.9 1017.8 0.0
25/12:30am 16.5 15.7 6.6 52 4.9 CALM 0 0 0 0 1017.9 1017.8 0.0
25/12:00am 16.8 16.2 7.2 53 4.8 CALM 0 0 0 0 1018.0 1017.9 0.0
 
Date/Time
CST
Temp
°C
App
Temp
°C
Dew
Point
Rel
Hum
%
Delta-T
°C
Wind Press
QNH
hPa
Press
MSL
hPa
Rain
since 9 am
mm
Dir
 
Spd
km/h
Gust
km/h
Spd
kts
Gust
kts
24/11:30pm 17.1 16.8 8.5 57 4.4 CALM 0 0 0 0 1018.0 1017.9 0.0
24/11:00pm 18.0 17.4 7.4 50 5.3 CALM 0 0 0 0 1018.1 1018.0 0.0
24/10:30pm 18.4 16.6 7.2 48 5.6 NE 6 7 3 4 1018.2 1018.1 0.0
24/10:00pm 19.7 19.4 8.7 49 5.8 CALM 0 0 0 0 1017.9 1017.8 0.0
24/09:30pm 20.9 19.2 8.5 45 6.5 NE 7 9 4 5 1017.8 1017.7 0.0
24/09:00pm 22.4 20.5 9.2 43 7.1 NE 9 13 5 7 1017.6 1017.5 0.0
24/08:30pm 23.4 21.7 8.3 38 8.0 NE 7 11 4 6 1017.1 1017.0 0.0
24/08:00pm 23.4 21.4 7.1 35 8.5 NNE 7 9 4 5 1016.7 1016.6 0.0
24/07:30pm 24.0 21.5 6.7 33 8.9 NNE 9 9 5 5 1016.3 1016.2 0.0
24/07:00pm 24.9 21.9 6.1 30 9.7 NE 11 15 6 8 1016.0 1015.9 0.0
24/06:30pm 25.9 22.5 6.0 28 10.3 NE 13 19 7 10 1015.7 1015.6 0.0
24/06:00pm 27.0 22.8 5.9 26 10.9 NNE 17 24 9 13 1015.3 1015.2 0.0
24/05:30pm 28.4 24.3 4.6 22 12.2 NNE 15 20 8 11 1014.9 1014.8 0.0
24/05:00pm 29.4 24.4 3.4 19 13.1 NNE 19 24 10 13 1014.6 1014.5 0.0
24/04:30pm 30.4 27.0 1.8 16 14.1 NNE 9 17 5 9 1014.4 1014.3 0.0
24/04:00pm 30.7 26.7 -1.9 12 15.1 E 9 17 5 9 1014.3 1014.2 0.0
24/03:30pm 31.1 26.8 -1.6 12 15.3 ENE 11 17 6 9 1014.3 1014.2 0.0

Other Formats:

Comma delimited format used in spreadsheet applications
http://www.bom.gov.au/fwo/IDD60801/IDD60801.94152.axf

JavaScript Object Notation format (JSON) in row-major order
http://www.bom.gov.au/fwo/IDD60801/IDD60801.94152.json